Time;durP1;ratioP1;P1;durP2;ratioP2;P2;SDS_P1;SDS_P2;PMS_P1;PMS_P2;Temp;Humidity;BMP_temperature;BMP_pressure;BME280_temperature;BME280_humidity;BME280_pressure;Samples;Min_cycle;Max_cycle;Signal;HPM_P1;HPM_P2
2022/11/23 00:00:02;;;;;;;30.40;18.00;;;;;;;;;;5027577;28;20431;-76
2022/11/23 00:02:28;;;;;;;24.10;16.70;;;;;;;;;;5032354;28;20572;-76
2022/11/23 00:04:54;;;;;;;23.90;16.48;;;;;;;;;;5028441;28;20419;-75
2022/11/23 00:07:20;;;;;;;27.20;16.98;;;;;;;;;;4999840;28;20442;-76
2022/11/23 00:09:46;;;;;;;25.17;15.80;;;;;;;;;;5030776;28;20569;-77
2022/11/23 00:12:12;;;;;;;24.25;16.77;;;;;;;;;;5014549;28;20427;-77
2022/11/23 00:14:38;;;;;;;24.88;16.33;;;;;;;;;;5025533;28;20497;-76
2022/11/23 00:17:05;;;;;;;23.88;15.63;;;;;;;;;;5031755;28;20430;-77
2022/11/23 00:19:31;;;;;;;23.10;16.08;;;;;;;;;;5016288;28;20423;-76
2022/11/23 00:21:57;;;;;;;23.35;15.00;;;;;;;;;;5040613;28;20518;-76
2022/11/23 00:24:23;;;;;;;24.48;16.00;;;;;;;;;;5024126;28;20435;-76
2022/11/23 00:26:49;;;;;;;22.50;15.38;;;;;;;;;;5038923;28;20430;-77
2022/11/23 00:29:15;;;;;;;22.52;14.63;;;;;;;;;;5039837;28;20484;-76
2022/11/23 00:31:41;;;;;;;24.10;15.20;;;;;;;;;;5008755;28;20467;-76
2022/11/23 00:34:07;;;;;;;20.75;15.25;;;;;;;;;;5023000;28;20487;-76
2022/11/23 00:36:33;;;;;;;23.52;15.77;;;;;;;;;;5032146;28;20517;-77
2022/11/23 00:38:59;;;;;;;22.17;15.13;;;;;;;;;;5014503;28;20427;-76
2022/11/23 00:41:26;;;;;;;21.98;15.05;;;;;;;;;;5011922;28;20448;-76
2022/11/23 00:43:52;;;;;;;23.80;14.73;;;;;;;;;;5015048;28;20829;-76
2022/11/23 00:46:20;;;;;;;22.35;15.23;;;;;;;;;;5028936;28;22380;-76
2022/11/23 00:48:46;;;;;;;23.08;15.13;;;;;;;;;;5032056;28;20486;-76
2022/11/23 00:51:14;;;;;;;24.13;15.03;;;;;;;;;;5031463;28;20419;-77
2022/11/23 00:53:40;;;;;;;23.83;14.05;;;;;;;;;;5032359;28;20498;-77
2022/11/23 00:56:07;;;;;;;23.80;14.65;;;;;;;;;;5025468;28;20774;-78
2022/11/23 00:58:33;;;;;;;27.50;14.77;;;;;;;;;;5031710;28;20411;-77
2022/11/23 01:01:00;;;;;;;23.77;14.93;;;;;;;;;;5028908;28;20857;-76
2022/11/23 01:03:27;;;;;;;23.05;14.55;;;;;;;;;;5002910;28;20433;-77
2022/11/23 01:05:53;;;;;;;20.33;13.90;;;;;;;;;;5029937;28;20891;-77
2022/11/23 01:08:19;;;;;;;21.60;13.90;;;;;;;;;;5030203;28;20411;-77
2022/11/23 01:10:45;;;;;;;22.15;13.88;;;;;;;;;;5030321;28;20458;-78
2022/11/23 01:13:11;;;;;;;24.02;14.18;;;;;;;;;;5028135;28;20437;-77
2022/11/23 01:15:37;;;;;;;22.40;14.35;;;;;;;;;;5025731;28;20496;-76
2022/11/23 01:18:03;;;;;;;20.83;13.70;;;;;;;;;;5011990;28;20487;-77
2022/11/23 01:20:29;;;;;;;22.90;13.65;;;;;;;;;;5029675;28;20474;-76
2022/11/23 01:22:55;;;;;;;21.52;13.88;;;;;;;;;;5016685;28;20424;-76
2022/11/23 01:25:22;;;;;;;22.08;14.00;;;;;;;;;;5043519;28;20449;-76
2022/11/23 01:27:48;;;;;;;21.85;13.82;;;;;;;;;;5035628;28;20423;-76
2022/11/23 01:30:14;;;;;;;23.45;13.68;;;;;;;;;;5037527;28;20411;-76
2022/11/23 01:32:40;;;;;;;21.20;13.98;;;;;;;;;;5018153;28;20430;-76
2022/11/23 01:35:06;;;;;;;24.92;14.35;;;;;;;;;;5050511;28;20433;-76
2022/11/23 01:37:32;;;;;;;21.95;13.77;;;;;;;;;;5035489;28;20485;-77
2022/11/23 01:39:58;;;;;;;24.23;14.30;;;;;;;;;;5052827;28;20477;-76
2022/11/23 01:42:38;;;;;;;23.05;14.88;;;;;;;;;;5069724;28;20403;-76
2022/11/23 01:45:31;;;;;;;24.90;14.17;;;8.30;99.90;;;;;;5049634;28;20576;-76
2022/11/23 01:47:57;;;;;;;24.65;14.82;;;;;;;;;;5035993;28;20407;-76
2022/11/23 01:50:23;;;;;;;24.08;15.25;;;;;;;;;;5049033;28;20435;-76
2022/11/23 01:52:50;;;;;;;33.43;15.63;;;;;;;;;;5034307;28;20480;-76
2022/11/23 01:55:16;;;;;;;25.50;15.30;;;;;;;;;;5050242;28;20438;-76
2022/11/23 01:57:43;;;;;;;24.15;15.23;;;;;;;;;;5035620;28;20427;-76
2022/11/23 02:00:10;;;;;;;23.67;15.38;;;;;;;;;;5049582;28;20423;-76
2022/11/23 02:02:41;;;;;;;25.45;15.50;;;8.20;99.90;;;;;;5045947;28;20429;-76
2022/11/23 02:05:07;;;;;;;24.67;15.48;;;;;;;;;;5050888;28;20998;-76
2022/11/23 02:07:34;;;;;;;28.55;17.30;;;;;;;;;;5052358;28;20459;-76
2022/11/23 02:10:00;;;;;;;25.25;15.57;;;;;;;;;;5049769;28;20774;-76
2022/11/23 02:12:26;;;;;;;28.45;16.13;;;;;;;;;;5051960;28;20454;-77
2022/11/23 02:14:52;;;;;;;24.05;15.57;;;;;;;;;;5047376;28;20920;-77
2022/11/23 02:17:20;;;;;;;25.83;15.70;;;;;;;;;;5021643;28;20512;-71
2022/11/23 02:19:50;;;;;;;25.63;16.10;;;;;;;;;;5055316;28;20516;-70
2022/11/23 02:22:19;;;;;;;23.73;16.13;;;;;;;;;;5032826;28;20513;-71
2022/11/23 02:24:49;;;;;;;27.17;16.42;;;;;;;;;;5068069;28;20474;-70
2022/11/23 02:27:15;;;;;;;28.15;16.00;;;;;;;;;;5069297;28;20485;-71
2022/11/23 02:29:41;;;;;;;26.77;16.45;;;;;;;;;;5068008;28;20455;-70
2022/11/23 02:32:07;;;;;;;32.35;17.52;;;;;;;;;;5068190;28;20471;-70
2022/11/23 02:34:34;;;;;;;29.02;16.92;;;;;;;;;;5069053;28;20439;-70
2022/11/23 02:37:00;;;;;;;32.45;17.35;;;;;;;;;;5051171;28;20415;-70
2022/11/23 02:39:29;;;;;;;32.08;18.35;;;;;;;;;;5050983;28;20423;-71
2022/11/23 02:41:56;;;;;;;30.38;17.48;;;;;;;;;;5031594;28;20451;-71
2022/11/23 02:44:31;;;;;;;30.70;17.02;;;;;;;;;;5066388;28;20430;-71
2022/11/23 02:46:57;;;;;;;29.70;17.45;;;;;;;;;;5035428;28;20488;-70
2022/11/23 02:49:24;;;;;;;30.77;17.77;;;;;;;;;;5072885;28;20574;-72
2022/11/23 02:51:50;;;;;;;33.13;18.35;;;;;;;;;;5037656;28;20426;-72
2022/11/23 02:54:16;;;;;;;30.38;18.13;;;;;;;;;;5069664;28;20805;-72
2022/11/23 02:56:42;;;;;;;30.90;18.08;;;;;;;;;;5074767;28;20414;-71
2022/11/23 02:59:08;;;;;;;32.28;19.02;;;;;;;;;;5037431;28;20419;-72
2022/11/23 03:01:34;;;;;;;33.05;18.67;;;;;;;;;;5072756;28;20474;-73
2022/11/23 03:04:00;;;;;;;37.88;19.20;;;;;;;;;;5066867;28;20896;-72
2022/11/23 03:06:26;;;;;;;31.88;19.02;;;;;;;;;;5054450;28;20397;-72
2022/11/23 03:08:52;;;;;;;33.45;19.42;;;;;;;;;;5058642;28;20502;-72
2022/11/23 03:11:18;;;;;;;35.47;20.52;;;;;;;;;;5066618;28;20432;-72
2022/11/23 03:13:44;;;;;;;38.75;19.77;;;;;;;;;;5050899;28;20419;-71
2022/11/23 03:16:11;;;;;;;39.38;21.58;;;;;;;;;;5056562;28;20790;-71
2022/11/23 03:18:37;;;;;;;36.58;21.95;;;;;;;;;;5037899;28;20451;-72
2022/11/23 03:21:04;;;;;;;41.38;21.38;;;;;;;;;;5067436;28;20473;-71
2022/11/23 03:23:30;;;;;;;38.92;21.50;;;;;;;;;;5033540;28;20443;-72
2022/11/23 03:25:59;;;;;;;34.95;20.73;;;;;;;;;;5053148;28;20902;-72
2022/11/23 03:28:25;;;;;;;44.05;21.13;;;;;;;;;;5073448;28;20410;-72
2022/11/23 03:30:51;;;;;;;37.80;22.27;;;;;;;;;;5072001;28;20411;-72
2022/11/23 03:33:17;;;;;;;40.08;22.13;;;;;;;;;;5054328;28;20427;-71
2022/11/23 03:35:44;;;;;;;37.58;21.52;;;;;;;;;;5073033;28;20786;-72
2022/11/23 03:38:10;;;;;;;43.80;22.92;;;;;;;;;;5073978;28;20403;-72
2022/11/23 03:40:36;;;;;;;41.65;22.55;;;;;;;;;;5071375;28;20455;-72
2022/11/23 03:43:02;;;;;;;41.75;22.40;;;;;;;;;;5068719;28;20477;-72
2022/11/23 03:45:28;;;;;;;43.63;23.17;;;;;;;;;;5071577;28;20412;-72
2022/11/23 03:47:54;;;;;;;40.95;22.60;;;;;;;;;;5039316;28;20457;-72
2022/11/23 03:50:20;;;;;;;78.93;27.47;;;;;;;;;;5071886;28;20525;-72
2022/11/23 03:52:48;;;;;;;42.30;23.40;;;;;;;;;;5068689;28;20446;-72
2022/11/23 03:55:14;;;;;;;43.38;23.58;;;;;;;;;;5072686;28;20403;-72
2022/11/23 03:57:40;;;;;;;45.17;23.90;;;;;;;;;;5053917;28;20422;-72
2022/11/23 04:00:07;;;;;;;45.58;24.60;;;;;;;;;;5071780;28;20436;-72
2022/11/23 04:02:33;;;;;;;43.78;23.30;;;;;;;;;;5069367;28;20746;-72
2022/11/23 04:05:00;;;;;;;48.80;24.20;;;;;;;;;;5072488;28;20422;-72
2022/11/23 04:07:26;;;;;;;45.08;24.80;;;;;;;;;;5073443;28;20392;-71
2022/11/23 04:09:52;;;;;;;48.83;25.02;;;;;;;;;;5052565;28;20423;-71
2022/11/23 04:12:18;;;;;;;51.28;26.13;;;;;;;;;;5072541;28;20453;-71
2022/11/23 04:14:44;;;;;;;46.73;25.03;;;;;;;;;;5070583;28;20460;-71
2022/11/23 04:17:10;;;;;;;48.05;25.77;;;;;;;;;;5054646;28;20497;-71
2022/11/23 04:19:36;;;;;;;48.70;25.92;;;;;;;;;;5034606;28;20560;-71
2022/11/23 04:22:02;;;;;;;46.40;25.83;;;;;;;;;;5068590;28;20423;-77
2022/11/23 04:24:28;;;;;;;47.80;25.83;;;;;;;;;;5070850;28;20427;-77
2022/11/23 04:26:54;;;;;;;45.67;25.83;;;;;;;;;;5053798;28;20898;-77
2022/11/23 04:29:20;;;;;;;50.05;26.85;;;;;;;;;;5015199;28;20421;-77
2022/11/23 04:31:47;;;;;;;51.10;26.33;;;;;;;;;;5053932;28;20418;-77
2022/11/23 04:34:13;;;;;;;51.88;27.48;;;;;;;;;;5051260;28;20432;-77
2022/11/23 04:36:39;;;;;;;46.38;26.35;;;;;;;;;;5054959;28;20414;-77
2022/11/23 04:39:06;;;;;;;53.42;27.58;;;;;;;;;;5053798;28;20431;-77
2022/11/23 04:41:32;;;;;;;51.55;27.02;;;;;;;;;;5049721;28;20455;-77
2022/11/23 04:43:58;;;;;;;53.20;26.92;;;;;;;;;;5035094;28;20913;-77
2022/11/23 04:46:24;;;;;;;49.03;26.45;;;;;;;;;;5047127;28;20483;-78
2022/11/23 04:48:50;;;;;;;48.85;27.13;;;;;;;;;;5053469;28;20557;-78
2022/11/23 04:51:17;;;;;;;52.53;27.02;;;;;;;;;;5035409;28;20424;-77
2022/11/23 04:53:43;;;;;;;51.03;27.90;;;;;;;;;;5036604;28;20432;-77
2022/11/23 04:56:09;;;;;;;50.40;27.45;;;;;;;;;;5049376;28;20748;-77
2022/11/23 04:58:35;;;;;;;48.42;26.80;;;;;;;;;;5052142;28;20422;-78
2022/11/23 05:01:01;;;;;;;50.35;27.13;;;;;;;;;;5035736;28;20430;-77
2022/11/23 05:03:28;;;;;;;52.00;27.40;;;;;;;;;;5051626;28;21089;-77
2022/11/23 05:05:54;;;;;;;48.63;26.90;;;;;;;;;;5052393;28;20498;-77
2022/11/23 05:08:20;;;;;;;49.60;26.58;;;;;;;;;;5033839;28;20478;-77
2022/11/23 05:10:46;;;;;;;50.10;26.50;;;;;;;;;;5051705;28;20426;-78
2022/11/23 05:13:12;;;;;;;49.22;26.88;;;;;;;;;;5034016;28;20717;-77
2022/11/23 05:15:38;;;;;;;48.67;27.58;;;;;;;;;;5034441;28;20913;-77
2022/11/23 05:18:09;;;;;;;49.17;27.13;;;;;;;;;;5053115;28;20414;-77
2022/11/23 05:20:35;;;;;;;53.88;28.02;;;;;;;;;;5052553;28;20783;-77
2022/11/23 05:23:01;;;;;;;50.27;26.63;;;;;;;;;;5057763;28;20424;-77
2022/11/23 05:25:27;;;;;;;48.17;26.85;;;;;;;;;;5064157;28;20415;-77
2022/11/23 05:27:53;;;;;;;48.92;26.58;;;;;;;;;;5058941;28;20463;-76
2022/11/23 05:30:20;;;;;;;48.58;26.77;;;;;;;;;;5029889;28;20425;-71
2022/11/23 05:32:47;;;;;;;47.42;27.05;;;;;;;;;;5048213;28;20435;-71
2022/11/23 05:35:13;;;;;;;48.08;26.58;;;;;;;;;;5071021;28;20424;-71
2022/11/23 05:37:40;;;;;;;46.78;25.98;;;;;;;;;;5050760;28;20430;-72
2022/11/23 05:40:07;;;;;;;42.50;25.53;;;;;;;;;;5050922;28;20539;-72
2022/11/23 05:42:33;;;;;;;46.30;26.92;;;;;;;;;;5050084;28;20419;-80
2022/11/23 05:44:59;;;;;;;46.88;26.08;;;;;;;;;;5034494;28;20430;-79
2022/11/23 05:47:25;;;;;;;47.58;27.38;;;;;;;;;;5019221;28;20434;-80
2022/11/23 05:49:51;;;;;;;46.42;25.48;;;;;;;;;;5053018;28;20408;-72
2022/11/23 05:52:17;;;;;;;42.40;25.88;;;;;;;;;;5035095;28;20508;-73
2022/11/23 05:54:43;;;;;;;37.75;24.17;;;;;;;;;;5052038;28;20443;-72
2022/11/23 05:57:10;;;;;;;45.40;24.65;;;;;;;;;;5049034;28;20425;-72
2022/11/23 05:59:36;;;;;;;45.97;26.05;;;;;;;;;;5024001;28;20423;-72
2022/11/23 06:02:02;;;;;;;38.65;24.27;;;;;;;;;;5033378;28;20423;-72
2022/11/23 06:04:28;;;;;;;36.30;23.20;;;;;;;;;;5019554;28;20953;-71
2022/11/23 06:06:56;;;;;;;41.07;24.13;;;;;;;;;;5035180;28;20482;-71
2022/11/23 06:09:22;;;;;;;36.78;23.17;;;;;;;;;;5049496;28;20867;-72
2022/11/23 06:11:48;;;;;;;40.72;23.48;;;;;;;;;;5051604;28;20862;-71
2022/11/23 06:14:14;;;;;;;38.03;23.05;;;;;;;;;;5050686;28;20505;-71
2022/11/23 06:16:40;;;;;;;36.33;22.80;;;;;;;;;;5029827;28;20429;-71
2022/11/23 06:19:06;;;;;;;38.08;21.20;;;;;;;;;;5032020;28;20494;-71
2022/11/23 06:21:32;;;;;;;38.85;22.20;;;;;;;;;;5047028;28;20430;-72
2022/11/23 06:23:58;;;;;;;38.47;22.10;;;;;;;;;;5033115;28;20443;-72
2022/11/23 06:26:24;;;;;;;35.78;21.63;;;;;;;;;;5020564;28;20986;-72
2022/11/23 06:28:51;;;;;;;36.63;21.70;;;;;;;;;;5043051;28;20458;-72
2022/11/23 06:31:17;;;;;;;37.63;20.77;;;;;;;;;;5048457;28;20445;-72
2022/11/23 06:33:43;;;;;;;34.03;20.20;;;;;;;;;;5031513;28;20419;-73
2022/11/23 06:36:10;;;;;;;42.35;20.77;;;;;;;;;;5041607;28;20446;-71
2022/11/23 06:38:36;;;;;;;34.22;19.77;;;;;;;;;;5027396;28;20442;-72
2022/11/23 06:41:03;;;;;;;33.33;18.67;;;;;;;;;;5048484;28;21006;-71
2022/11/23 06:43:30;;;;;;;31.33;18.70;;;;;;;;;;5048453;28;20411;-71
2022/11/23 06:45:56;;;;;;;34.65;18.92;;;;;;;;;;5048925;28;20434;-73
2022/11/23 06:48:22;;;;;;;30.10;16.80;;;;;;;;;;5032375;28;20428;-73
2022/11/23 06:50:49;;;;;;;29.80;17.38;;;;;;;;;;5034315;28;20455;-72
2022/11/23 06:53:15;;;;;;;70.03;21.88;;;;;;;;;;5028424;28;20439;-73
2022/11/23 06:55:41;;;;;;;27.08;16.52;;;;;;;;;;5024224;28;20463;-73
2022/11/23 06:58:07;;;;;;;26.83;15.90;;;;;;;;;;5043707;28;20451;-73
2022/11/23 07:00:34;;;;;;;29.13;16.48;;;;;;;;;;5048212;28;20435;-73
2022/11/23 07:03:00;;;;;;;59.15;20.98;;;;;;;;;;5046797;28;20506;-73
2022/11/23 07:05:26;;;;;;;27.38;14.70;;;;;;;;;;5032904;28;20427;-73
2022/11/23 07:07:52;;;;;;;24.40;13.25;;;;;;;;;;5032746;28;20953;-73
2022/11/23 07:10:19;;;;;;;25.60;12.80;;;;;;;;;;5034078;28;20941;-70
2022/11/23 07:12:45;;;;;;;21.00;12.70;;;;;;;;;;5033419;28;20419;-72
2022/11/23 07:15:12;;;;;;;22.40;12.17;;;;;;;;;;5048782;28;20517;-73
2022/11/23 07:17:39;;;;;;;22.73;12.70;;;;;;;;;;5033644;28;20922;-72
2022/11/23 07:20:07;;;;;;;20.98;11.57;;;;;;;;;;5035888;28;20423;-72
2022/11/23 07:22:33;;;;;;;22.00;12.75;;;;;;;;;;5048269;28;20423;-72
2022/11/23 07:24:59;;;;;;;24.60;12.57;;;;;;;;;;5034867;28;20954;-73
2022/11/23 07:27:25;;;;;;;21.73;12.60;;;;;;;;;;5023360;28;20447;-72
2022/11/23 07:29:51;;;;;;;21.15;12.25;;;;;;;;;;5047781;28;20424;-71
2022/11/23 07:32:17;;;;;;;21.17;11.98;;;;;;;;;;5051825;28;20622;-72
2022/11/23 07:34:43;;;;;;;22.60;12.03;;;;;;;;;;5054817;28;20483;-72
2022/11/23 07:37:09;;;;;;;24.73;11.55;;;;;;;;;;5050618;28;20423;-72
2022/11/23 07:39:35;;;;;;;22.95;12.10;;;;;;;;;;5052331;28;20437;-72
2022/11/23 07:42:01;;;;;;;19.38;11.32;;;;;;;;;;5036660;28;20440;-72
2022/11/23 07:44:27;;;;;;;19.33;11.00;;;;;;;;;;5042598;28;20443;-72
2022/11/23 07:46:53;;;;;;;20.70;11.43;;;;;;;;;;5053311;28;20980;-72
2022/11/23 07:49:20;;;;;;;18.95;10.98;;;;;;;;;;5044620;28;20413;-70
2022/11/23 07:51:46;;;;;;;21.40;10.57;;;;;;;;;;5045399;28;20498;-72
2022/11/23 07:54:12;;;;;;;20.10;11.07;;;;;;;;;;5047036;28;20427;-71
2022/11/23 07:56:38;;;;;;;19.20;10.47;;;;;;;;;;5049953;28;20516;-71
2022/11/23 07:59:05;;;;;;;27.55;10.98;;;;;;;;;;5050545;28;20424;-72
2022/11/23 08:01:31;;;;;;;21.00;10.68;;;;;;;;;;5022015;28;20427;-72
2022/11/23 08:03:57;;;;;;;18.47;9.67;;;;;;;;;;5036346;28;20441;-73
2022/11/23 08:06:23;;;;;;;20.10;10.18;;;;;;;;;;5053587;28;20416;-72
2022/11/23 08:08:49;;;;;;;21.23;10.47;;;;;;;;;;5046095;28;20823;-73
2022/11/23 08:11:19;;;;;;;18.17;10.07;;;;;;;;;;5032333;28;20407;-73
2022/11/23 08:13:45;;;;;;;22.50;10.02;;;;;;;;;;5017927;28;20947;-72
2022/11/23 08:16:11;;;;;;;22.48;9.65;;;;;;;;;;5034862;28;20426;-72
2022/11/23 08:18:37;;;;;;;20.58;9.85;;;;;;;;;;5042731;28;20927;-72
2022/11/23 08:21:04;;;;;;;19.30;9.43;;;;;;;;;;5044208;28;20419;-71
2022/11/23 08:23:30;;;;;;;18.70;9.27;;;;;;;;;;5049358;28;20485;-72
2022/11/23 08:25:56;;;;;;;19.02;10.02;;;;;;;;;;5045470;28;20419;-72
2022/11/23 08:28:22;;;;;;;18.17;9.57;;;;;;;;;;5052862;28;20530;-73
2022/11/23 08:30:48;;;;;;;58.88;12.68;;;;;;;;;;5030506;28;20752;-72
2022/11/23 08:33:14;;;;;;;22.25;9.82;;;;;;;;;;5043181;28;20427;-72
2022/11/23 08:35:41;;;;;;;20.50;10.07;;;;;;;;;;5031775;28;20427;-72
2022/11/23 08:38:08;;;;;;;25.33;10.90;;;;;;;;;;5053064;28;20419;-72
2022/11/23 08:40:34;;;;;;;18.48;9.30;;;;;;;;;;5050431;28;20782;-72
2022/11/23 08:43:00;;;;;;;21.10;9.27;;;;;;;;;;5045870;28;20556;-71
2022/11/23 08:45:26;;;;;;;30.25;11.65;;;;;;;;;;5034550;28;20420;-72
2022/11/23 08:47:54;;;;;;;24.85;10.10;;;;;;;;;;5030375;28;20998;-72
2022/11/23 08:50:21;;;;;;;24.45;9.57;;;;;;;;;;5033759;28;20536;-72
2022/11/23 08:52:47;;;;;;;27.67;9.60;;;;;;;;;;5052643;28;20419;-72
2022/11/23 08:55:13;;;;;;;23.58;10.50;;;;;;;;;;5033026;28;20462;-71
2022/11/23 08:57:39;;;;;;;20.80;9.40;;;;;;;;;;5043757;28;20421;-72
2022/11/23 09:00:06;;;;;;;19.80;9.52;;;;;;;;;;5030588;28;20429;-72
2022/11/23 09:02:32;;;;;;;21.58;9.60;;;;;;;;;;5032508;28;20431;-72
2022/11/23 09:04:59;;;;;;;17.45;9.00;;;;;;;;;;5049031;28;20423;-72
2022/11/23 09:07:25;;;;;;;19.20;9.07;;;;;;;;;;5048614;28;20423;-72
2022/11/23 09:09:52;;;;;;;20.73;8.57;;;;;;;;;;5049947;28;20423;-72
2022/11/23 09:12:18;;;;;;;18.48;7.82;;;;;;;;;;5029975;28;20420;-72
2022/11/23 09:14:44;;;;;;;18.17;7.13;;;;;;;;;;5033948;28;20528;-71
2022/11/23 09:17:10;;;;;;;16.88;7.53;;;;;;;;;;5035579;28;20425;-72
2022/11/23 09:19:36;;;;;;;16.83;6.82;;;;;;;;;;5050521;28;20415;-71
2022/11/23 09:22:02;;;;;;;14.52;7.07;;;;;;;;;;5037230;28;20440;-71
2022/11/23 09:24:28;;;;;;;16.77;6.85;;;;;;;;;;5026965;28;20517;-71
2022/11/23 09:26:54;;;;;;;17.67;6.72;;;;;;;;;;5046918;28;20505;-72
2022/11/23 09:29:20;;;;;;;16.98;6.40;;;;;;;;;;5014021;28;20451;-72
2022/11/23 09:31:46;;;;;;;17.15;6.32;;;;;;;;;;5050170;28;20603;-73
2022/11/23 09:34:13;;;;;;;17.10;6.43;;;;;;;;;;5051091;28;20423;-72
2022/11/23 09:36:39;;;;;;;17.38;6.50;;;;;;;;;;5042034;28;20485;-72
2022/11/23 09:39:05;;;;;;;17.25;6.45;;;;;;;;;;5031473;28;20415;-73
2022/11/23 09:42:02;;;;;;;13.20;5.95;;;8.80;99.90;;;;;;5031270;28;20439;-73
2022/11/23 09:44:32;;;;;;;15.40;5.85;;;;;;;;;;5045302;28;20467;-72
2022/11/23 09:47:05;;;;;;;16.35;5.97;;;;;;;;;;5048012;28;20447;-72
2022/11/23 09:49:47;;;;;;;15.30;5.63;;;;;;;;;;5032912;28;20426;-72
2022/11/23 09:52:18;;;;;;;13.27;6.07;;;;;;;;;;5050340;28;20478;-71
2022/11/23 09:54:45;;;;;;;17.63;5.57;;;;;;;;;;5045997;28;20478;-71
2022/11/23 09:57:14;;;;;;;17.17;5.80;;;;;;;;;;5049985;28;20424;-72
2022/11/23 09:59:43;;;;;;;14.80;5.70;;;;;;;;;;5035368;28;20849;-71
2022/11/23 10:02:21;;;;;;;15.98;5.53;;;9.00;99.90;;;;;;5065897;28;20423;-71
2022/11/23 10:04:47;;;;;;;15.07;6.20;;;;;;;;;;5046491;28;20415;-71
2022/11/23 10:07:31;;;;;;;18.23;5.93;;;;;;;;;;5029111;28;20444;-71
2022/11/23 10:10:20;;;;;;;22.23;7.20;;;;;;;;;;5041407;28;20559;-72
2022/11/23 10:12:46;;;;;;;13.27;5.82;;;;;;;;;;5028408;28;20426;-72
2022/11/23 10:15:13;;;;;;;18.40;6.47;;;;;;;;;;5034198;28;20476;-72
2022/11/23 10:17:58;;;;;;;17.50;6.07;;;;;;;;;;5035500;28;20474;-72
2022/11/23 10:20:37;;;;;;;20.58;6.68;;;;;;;;;;5066259;28;20524;-72
2022/11/23 10:23:12;;;;;;;18.02;6.97;;;;;;;;;;5044885;28;20419;-72
2022/11/23 10:25:41;;;;;;;17.52;6.35;;;;;;;;;;5029382;28;20412;-71
2022/11/23 10:28:12;;;;;;;17.50;6.38;;;;;;;;;;5047558;28;20449;-72
2022/11/23 10:30:38;;;;;;;17.80;6.70;;;;;;;;;;5031998;28;20430;-72
2022/11/23 10:33:37;;;;;;;13.57;5.77;;;;;;;;;;5030474;28;20500;-72
2022/11/23 10:36:03;;;;;;;17.65;5.72;;;;;;;;;;4988798;28;20470;-71
2022/11/23 10:38:29;;;;;;;17.95;5.72;;;;;;;;;;5050349;28;21273;-72
2022/11/23 10:40:58;;;;;;;18.88;5.60;;;;;;;;;;5028284;28;20444;-73
2022/11/23 10:43:26;;;;;;;15.37;5.07;;;;;;;;;;5052092;28;20476;-72
2022/11/23 10:46:27;;;;;;;17.17;5.20;;;8.90;99.90;;;;;;5047296;28;20614;-72
2022/11/23 10:48:53;;;;;;;17.80;5.28;;;;;;;;;;5049520;28;20415;-72
2022/11/23 10:51:33;;;;;;;17.52;5.32;;;;;;;;;;5047438;28;20469;-73
2022/11/23 10:54:03;;;;;;;17.85;5.20;;;;;;;;;;5022832;28;20542;-72
2022/11/23 10:56:30;;;;;;;15.10;5.30;;;;;;;;;;5039269;28;20442;-72
2022/11/23 10:58:56;;;;;;;17.67;5.07;;;;;;;;;;5038224;28;20487;-72
2022/11/23 11:01:24;;;;;;;16.52;5.03;;;;;;;;;;5033614;28;20428;-72
2022/11/23 11:03:51;;;;;;;16.70;5.13;;;9.50;99.90;;;;;;5050989;28;20411;-72
2022/11/23 11:06:29;;;;;;;16.10;5.13;;;;;;;;;;5051825;28;20456;-72
2022/11/23 11:08:56;;;;;;;17.30;4.93;;;;;;;;;;5052824;28;20428;-71
2022/11/23 11:11:27;;;;;;;16.85;5.20;;;;;;;;;;5053976;28;20427;-71
2022/11/23 11:14:06;;;;;;;18.15;4.88;;;;;;;;;;5036593;28;20914;-71
2022/11/23 11:16:37;;;;;;;15.45;5.28;;;;;;;;;;5052368;28;20419;-72
2022/11/23 11:19:26;;;;;;;14.40;4.10;;;9.80;99.90;;;;;;5049436;28;20937;-72
2022/11/23 11:21:52;;;;;;;15.13;4.20;;;;;;;;;;5035063;28;20885;-72
2022/11/23 11:24:38;;;;;;;15.68;4.57;;;;;;;;;;5050539;28;20455;-72
2022/11/23 11:27:09;;;;;;;16.13;4.47;;;;;;;;;;5054425;28;20416;-71
2022/11/23 11:29:46;;;;;;;12.07;4.07;;;;;;;;;;5053404;28;20411;-71
2022/11/23 11:32:31;;;;;;;14.83;4.13;;;;;;;;;;5052517;28;20514;-72
2022/11/23 11:35:12;;;;;;;14.97;3.90;;;;;;;;;;5044882;28;20415;-71
2022/11/23 11:37:40;;;;;;;14.48;4.13;;;;;;;;;;5055033;28;20416;-71
2022/11/23 11:40:27;;;;;;;15.10;3.80;;;10.00;99.90;;;;;;5054723;28;20506;-71
2022/11/23 11:43:18;;;;;;;17.70;3.95;;;9.90;99.90;;;;;;5051104;28;21004;-72
2022/11/23 11:45:50;;;;;;;15.45;4.40;;;10.50;99.90;;;;;;5048106;28;20485;-72
2022/11/23 11:48:21;;;;;;;12.85;3.42;;;;;;;;;;5050571;28;20914;-71
2022/11/23 11:50:53;;;;;;;15.20;4.25;;;;;;;;;;5054426;28;20423;-72
2022/11/23 11:53:32;;;;;;;15.43;5.07;;;;;;;;;;5032733;28;20529;-72
2022/11/23 11:56:02;;;;;;;14.88;4.10;;;;;;;;;;5064539;28;20416;-72
2022/11/23 11:58:29;;;;;;;15.00;3.40;;;10.30;99.90;;;;;;5070405;28;20477;-72
2022/11/23 12:00:59;;;;;;;13.27;3.67;;;;;;;;;;5054935;28;20427;-72
2022/11/23 12:03:39;;;;;;;16.13;3.92;;;10.30;99.90;;;;;;5049546;28;20420;-72
2022/11/23 12:06:20;;;;;;;15.57;3.38;;;10.60;99.90;;;;;;5032875;28;20420;-72
2022/11/23 12:08:46;;;;;;;13.10;3.38;;;;;;;;;;5076149;28;20415;-73
2022/11/23 12:11:13;;;;;;;13.13;3.70;;;;;;;;;;5051644;28;20423;-73
2022/11/23 12:13:41;;;;;;;11.60;3.40;;;;;;;;;;5049360;28;20942;-72
2022/11/23 12:16:26;;;;;;;13.53;3.30;;;;;;;;;;5032085;28;20422;-73
2022/11/23 12:19:24;;;;;;;14.05;3.33;;;10.20;99.90;;;;;;5044323;28;20831;-73
2022/11/23 12:22:05;;;;;;;16.98;3.75;;;;;;;;;;5054117;28;20462;-73
2022/11/23 12:24:50;;;;;;;15.43;3.47;;;;;;;;;;5044320;28;20426;-73
2022/11/23 12:27:48;;;;;;;12.50;3.00;;;11.30;99.90;;;;;;5051959;28;20441;-72
2022/11/23 12:30:18;;;;;;;13.23;3.25;;;;;;;;;;5052638;28;20756;-74
2022/11/23 12:32:44;;;;;;;14.13;3.10;;;;;;;;;;5048985;28;20420;-75
2022/11/23 12:35:29;;;;;;;12.90;2.85;;;;;;;;;;5033110;28;20415;-75
2022/11/23 12:38:14;;;;;;;11.45;2.90;;;;;;;;;;5025690;28;20580;-73
2022/11/23 12:40:48;;;;;;;15.75;2.90;;;;;;;;;;5032324;28;20435;-71
2022/11/23 12:43:17;;;;;;;9.60;2.75;;;;;;;;;;5028924;28;20419;-72
2022/11/23 12:46:07;;;;;;;10.93;3.17;;;;;;;;;;5051100;28;20424;-71
2022/11/23 12:48:39;;;;;;;8.88;2.47;;;;;;;;;;5032754;28;20417;-73
2022/11/23 12:51:24;;;;;;;9.95;2.67;;;;;;;;;;5047991;28;20539;-73
2022/11/23 12:54:05;;;;;;;7.15;2.60;;;;;;;;;;5070411;28;20412;-73
2022/11/23 12:56:43;;;;;;;10.15;2.50;;;;;;;;;;5048452;28;20423;-74
2022/11/23 12:59:10;;;;;;;11.05;2.70;;;;;;;;;;5047607;28;20512;-73
2022/11/23 13:01:41;;;;;;;11.35;2.63;;;;;;;;;;5031019;28;20425;-73
2022/11/23 13:04:19;;;;;;;11.80;2.28;;;;;;;;;;5040960;28;20443;-73
2022/11/23 13:07:04;;;;;;;14.48;3.00;;;;;;;;;;5047463;28;20943;-72
2022/11/23 13:09:33;;;;;;;9.63;2.50;;;;;;;;;;5039079;28;20806;-72
2022/11/23 13:12:05;;;;;;;10.88;2.50;;;;;;;;;;5042012;28;20541;-73
2022/11/23 13:14:40;;;;;;;13.07;2.70;;;;;;;;;;5033647;28;20422;-73
2022/11/23 13:17:15;;;;;;;10.48;2.33;;;;;;;;;;5033972;28;20752;-73
2022/11/23 13:19:52;;;;;;;12.30;3.08;;;;;;;;;;5034388;28;20484;-73
2022/11/23 13:22:19;;;;;;;13.27;3.10;;;;;;;;;;5033947;28;20447;-74
2022/11/23 13:25:01;;;;;;;10.88;2.88;;;;;;;;;;5023566;28;20989;-73
2022/11/23 13:27:27;;;;;;;11.52;3.22;;;;;;;;;;5029114;28;20775;-74
2022/11/23 13:29:57;;;;;;;11.63;3.23;;;;;;;;;;5052220;28;20513;-74
2022/11/23 13:32:38;;;;;;;9.40;2.90;;;;;;;;;;5034389;28;20926;-74
2022/11/23 13:35:23;;;;;;;12.57;3.17;;;;;;;;;;5032059;28;20916;-74
2022/11/23 13:37:55;;;;;;;10.00;2.63;;;;;;;;;;5046293;28;20473;-73
2022/11/23 13:40:26;;;;;;;9.57;2.60;;;;;;;;;;5049106;28;20440;-73
2022/11/23 13:42:53;;;;;;;11.57;2.83;;;;;;;;;;5047733;28;20566;-73
2022/11/23 13:45:19;;;;;;;8.77;2.45;;;;;;;;;;5031701;28;20828;-74
2022/11/23 13:48:03;;;;;;;13.25;2.63;;;10.20;99.90;;;;;;5042536;28;20431;-74
2022/11/23 13:50:29;;;;;;;7.85;2.35;;;;;;;;;;5044337;28;20420;-73
2022/11/23 13:52:56;;;;;;;11.95;2.38;;;;;;;;;;5049373;28;20428;-74
2022/11/23 13:55:34;;;;;;;8.50;2.20;;;;;;;;;;5049352;28;20474;-74
2022/11/23 13:58:32;;;;;;;9.80;2.45;;;;;;;;;;5034788;28;20420;-74
2022/11/23 14:00:59;;;;;;;7.95;1.98;;;;;;;;;;5030942;28;20434;-73
2022/11/23 14:03:40;;;;;;;8.70;2.30;;;;;;;;;;5039748;28;20573;-73
2022/11/23 14:06:11;;;;;;;13.15;2.50;;;;;;;;;;5040858;28;20546;-74
2022/11/23 14:08:38;;;;;;;10.23;2.60;;;;;;;;;;5047370;28;20510;-73
2022/11/23 14:11:16;;;;;;;8.02;2.10;;;;;;;;;;5032787;28;20435;-73
2022/11/23 14:13:51;;;;;;;10.80;2.55;;;;;;;;;;5024586;28;20416;-74
2022/11/23 14:16:23;;;;;;;11.43;2.35;;;;;;;;;;5027314;28;20412;-74
2022/11/23 14:18:54;;;;;;;8.63;2.20;;;;;;;;;;5042884;28;20749;-74
2022/11/23 14:21:30;;;;;;;10.38;2.50;;;;;;;;;;5066285;28;20427;-73
2022/11/23 14:24:11;;;;;;;9.68;2.80;;;;;;;;;;5038668;28;20903;-74
2022/11/23 14:26:38;;;;;;;9.60;2.10;;;;;;;;;;5040959;28;20496;-73